Time;durP1;ratioP1;P1;durP2;ratioP2;P2;SDS_P1;SDS_P2;PMS_P1;PMS_P2;Temp;Humidity;BMP_temperature;BMP_pressure;BME280_temperature;BME280_humidity;BME280_pressure;Samples;Min_cycle;Max_cycle;Signal;HPM_P1;HPM_P2
2022/11/19 00:02:24;;;;;;;6.82;3.50;;;2.10;99.90;;;;;;6211327;23;20024;-81
2022/11/19 00:04:50;;;;;;;6.30;3.05;;;2.00;99.90;;;;;;6211275;23;20016;-80
2022/11/19 00:07:16;;;;;;;9.45;3.40;;;2.00;99.90;;;;;;6211608;23;20480;-81
2022/11/19 00:09:41;;;;;;;7.28;3.90;;;2.00;99.90;;;;;;6211222;23;20012;-81
2022/11/19 00:14:53;;;;;;;6.50;3.58;;;2.00;99.90;;;;;;6211337;23;20027;-81
2022/11/19 00:17:19;;;;;;;7.20;3.78;;;2.00;99.90;;;;;;6213649;23;20012;-81
2022/11/19 00:19:44;;;;;;;8.05;3.25;;;1.90;99.90;;;;;;6239925;23;20397;-81
2022/11/19 00:22:10;;;;;;;6.65;3.65;;;1.80;99.90;;;;;;6242410;23;20012;-81
2022/11/19 00:24:36;;;;;;;7.05;3.65;;;1.80;99.90;;;;;;6215331;23;20038;-81
2022/11/19 00:27:01;;;;;;;5.57;3.20;;;1.70;99.90;;;;;;6243528;23;20432;-81
2022/11/19 00:29:27;;;;;;;7.10;3.38;;;1.60;99.90;;;;;;6243890;23;20063;-81
2022/11/19 00:31:53;;;;;;;6.10;3.22;;;1.60;99.90;;;;;;6244179;23;20019;-81
2022/11/19 00:34:18;;;;;;;6.25;3.33;;;1.50;99.90;;;;;;6214621;23;20448;-81
2022/11/19 00:36:44;;;;;;;6.13;3.33;;;1.50;99.90;;;;;;6243408;23;20368;-81
2022/11/19 00:39:09;;;;;;;5.93;3.17;;;1.50;99.90;;;;;;6215934;23;20043;-81
2022/11/19 00:41:35;;;;;;;7.68;3.65;;;1.40;99.90;;;;;;6216460;23;20020;-81
2022/11/19 00:44:01;;;;;;;6.43;3.47;;;1.40;99.90;;;;;;6243464;23;20324;-80
2022/11/19 00:46:29;;;;;;;7.28;3.55;;;1.40;99.90;;;;;;6216361;23;20020;-81
2022/11/19 00:48:56;;;;;;;7.30;3.30;;;1.30;99.90;;;;;;6242333;23;20110;-81
2022/11/19 00:51:24;;;;;;;7.68;4.07;;;1.30;99.90;;;;;;6190713;23;20016;-81
2022/11/19 00:53:50;;;;;;;7.53;3.40;;;1.30;99.90;;;;;;6242853;23;20012;-81
2022/11/19 00:56:18;;;;;;;6.82;3.33;;;1.20;99.90;;;;;;6242406;23;20062;-81
2022/11/19 00:58:44;;;;;;;6.47;3.35;;;1.30;99.90;;;;;;6243049;23;20008;-81
2022/11/19 01:01:10;;;;;;;6.70;3.13;;;1.20;99.90;;;;;;6216093;23;20091;-81
2022/11/19 01:03:38;;;;;;;7.05;3.35;;;1.10;99.90;;;;;;6241995;23;20012;-81
2022/11/19 01:06:03;;;;;;;7.90;3.85;;;1.10;99.90;;;;;;6241627;23;20015;-81
2022/11/19 01:08:29;;;;;;;7.55;3.75;;;1.10;99.90;;;;;;6242510;23;20053;-80
2022/11/19 01:10:55;;;;;;;7.47;4.28;;;1.10;99.90;;;;;;6242745;23;20023;-81
2022/11/19 01:13:36;;;;;;;8.27;4.20;;;1.00;99.90;;;;;;6243104;23;20119;-81
2022/11/19 01:16:11;;;;;;;7.30;3.80;;;1.00;99.90;;;;;;6242769;23;20014;-81
2022/11/19 01:18:38;;;;;;;7.68;3.78;;;1.00;99.90;;;;;;6189707;23;20393;-81
2022/11/19 01:21:05;;;;;;;7.55;4.22;;;1.00;99.90;;;;;;6215078;23;20047;-81
2022/11/19 01:23:32;;;;;;;11.35;4.63;;;1.00;99.90;;;;;;6213821;23;20008;-80
2022/11/19 01:25:57;;;;;;;8.20;4.32;;;1.00;99.90;;;;;;6241139;23;20440;-81
2022/11/19 01:28:23;;;;;;;6.50;3.63;;;1.40;99.90;;;;;;6242173;23;20012;-81
2022/11/19 01:30:49;;;;;;;7.40;3.80;;;0.90;99.90;;;;;;6214971;23;20016;-81
2022/11/19 01:33:15;;;;;;;7.75;4.25;;;0.90;99.90;;;;;;6242219;23;20019;-81
2022/11/19 01:35:41;;;;;;;6.97;3.72;;;0.90;99.90;;;;;;6215375;23;20087;-81
2022/11/19 01:38:07;;;;;;;8.50;4.65;;;0.90;99.90;;;;;;6215466;23;20016;-81
2022/11/19 01:40:41;;;;;;;6.68;3.72;;;0.90;99.90;;;;;;6215341;23;20019;-81
2022/11/19 01:43:10;;;;;;;6.85;3.65;;;0.90;99.90;;;;;;6215009;23;20019;-81
2022/11/19 01:45:48;;;;;;;8.52;4.47;;;1.10;99.90;;;;;;6214733;23;20027;-80
2022/11/19 01:48:20;;;;;;;7.88;3.92;;;0.90;99.90;;;;;;6242641;23;20012;-80
2022/11/19 01:51:01;;;;;;;8.85;4.65;;;0.90;99.90;;;;;;6241955;23;20012;-81
2022/11/19 01:53:35;;;;;;;6.55;3.45;;;0.90;99.90;;;;;;6190312;23;20114;-81
2022/11/19 01:56:03;;;;;;;7.15;3.90;;;0.90;99.90;;;;;;6241061;23;20023;-81
2022/11/19 01:58:39;;;;;;;7.50;3.75;;;0.90;99.90;;;;;;6214299;23;20101;-81
2022/11/19 02:01:06;;;;;;;8.75;3.97;;;0.90;99.90;;;;;;6241510;23;20039;-81
2022/11/19 02:03:33;;;;;;;7.35;3.88;;;0.90;99.90;;;;;;6214360;23;20024;-80
2022/11/19 02:06:01;;;;;;;7.18;3.90;;;0.80;99.90;;;;;;6240973;23;20508;-81
2022/11/19 02:08:38;;;;;;;6.30;3.40;;;0.80;99.90;;;;;;6215020;23;20016;-81
2022/11/19 02:11:28;;;;;;;8.52;4.50;;;0.80;99.90;;;;;;6214137;23;20019;-81
2022/11/19 02:14:16;;;;;;;7.68;3.72;;;0.80;99.90;;;;;;6214641;23;20441;-81
2022/11/19 02:16:57;;;;;;;6.75;3.30;;;0.80;99.90;;;;;;6240795;23;20048;-81
2022/11/19 02:19:40;;;;;;;7.80;4.10;;;0.70;99.90;;;;;;6213607;23;20380;-81
2022/11/19 02:22:39;;;;;;;8.50;3.28;;;0.70;99.90;;;;;;6214477;23;20016;-80
2022/11/19 02:25:18;;;;;;;7.60;3.85;;;0.70;99.90;;;;;;6188816;23;20020;-81
2022/11/19 02:28:18;;;;;;;6.80;3.53;;;0.60;99.90;;;;;;6214233;23;20020;-81
2022/11/19 02:30:49;;;;;;;7.68;4.53;;;0.60;99.90;;;;;;6189345;23;20054;-79
2022/11/19 02:33:28;;;;;;;8.23;3.80;;;0.60;99.90;;;;;;6189884;23;20008;-81
2022/11/19 02:36:29;;;;;;;7.15;3.55;;;0.50;99.90;;;;;;6215114;23;20016;-81
2022/11/19 02:39:12;;;;;;;8.02;3.80;;;0.50;99.90;;;;;;6213872;23;20420;-81
2022/11/19 02:41:52;;;;;;;8.40;4.13;;;0.50;99.90;;;;;;6241434;23;20016;-80
2022/11/19 02:47:16;;;;;;;7.57;3.92;;;0.40;99.90;;;;;;6240636;23;20016;-80
2022/11/19 02:49:44;;;;;;;7.68;4.18;;;0.40;99.90;;;;;;6213985;23;20374;-80
2022/11/19 02:52:12;;;;;;;7.55;4.15;;;0.40;99.90;;;;;;6188447;23;20047;-81
2022/11/19 02:54:38;;;;;;;7.18;3.83;;;0.30;99.90;;;;;;6214242;23;20023;-80
2022/11/19 02:57:03;;;;;;;7.32;3.58;;;0.30;99.90;;;;;;6214343;23;20020;-81
2022/11/19 03:05:37;;;;;;;7.97;4.20;;;0.30;99.90;;;;;;6213987;23;19922;-80
2022/11/19 03:08:04;;;;;;;9.18;4.50;;;0.20;99.90;;;;;;6241063;23;20012;-80
2022/11/19 03:11:00;;;;;;;10.13;4.70;;;0.20;99.90;;;;;;6241986;23;20075;-80
2022/11/19 03:16:41;;;;;;;8.85;3.80;;;0.10;99.90;;;;;;6241076;23;20023;-80
2022/11/19 03:19:34;;;;;;;9.18;4.28;;;0.10;99.90;;;;;;6213704;23;20012;-80
2022/11/19 03:22:28;;;;;;;9.57;4.18;;;0.10;99.90;;;;;;6212387;23;20027;-80
2022/11/19 03:24:59;;;;;;;7.67;4.33;;;0.00;99.90;;;;;;6240227;23;20012;-80
2022/11/19 03:27:39;;;;;;;7.97;4.22;;;0.00;99.90;;;;;;6240090;23;20341;-80
2022/11/19 03:30:06;;;;;;;9.40;4.55;;;0.00;99.90;;;;;;6213114;23;20023;-80
2022/11/19 03:32:39;;;;;;;9.88;4.60;;;0.00;99.90;;;;;;6214439;23;20027;-80
2022/11/19 03:35:11;;;;;;;11.40;4.85;;;-0.10;99.90;;;;;;6213723;23;20103;-80
2022/11/19 03:37:40;;;;;;;8.88;4.57;;;0.00;99.90;;;;;;6241499;23;20016;-80
2022/11/19 03:40:09;;;;;;;8.27;4.45;;;-0.10;99.90;;;;;;6214262;23;20043;-80
2022/11/19 03:42:37;;;;;;;9.88;5.18;;;-0.10;99.90;;;;;;6240502;23;20547;-80
2022/11/19 03:45:09;;;;;;;8.82;4.75;;;-0.10;99.90;;;;;;6214334;23;20022;-80
2022/11/19 03:47:37;;;;;;;8.77;4.18;;;-0.10;99.90;;;;;;6189261;23;20016;-80
2022/11/19 03:50:44;;;;;;;8.90;4.97;;;-0.10;99.90;;;;;;6241259;23;20083;-81
2022/11/19 03:53:10;;;;;;;10.73;4.93;;;-0.20;99.90;;;;;;6214692;23;20016;-81
2022/11/19 03:55:45;;;;;;;9.15;4.53;;;-0.10;99.90;;;;;;6189987;23;20024;-81
2022/11/19 03:58:11;;;;;;;8.23;4.68;;;-0.20;99.90;;;;;;6191319;23;20028;-81
2022/11/19 04:00:37;;;;;;;9.10;4.72;;;-0.20;99.90;;;;;;6216137;23;20031;-81
2022/11/19 04:03:03;;;;;;;8.13;5.07;;;-0.10;99.90;;;;;;6215793;23;20012;-81
2022/11/19 04:05:29;;;;;;;8.32;4.85;;;-0.20;99.90;;;;;;6216135;23;20023;-81
2022/11/19 04:07:55;;;;;;;9.77;4.78;;;-0.20;99.90;;;;;;6215838;23;20437;-81
2022/11/19 04:10:20;;;;;;;10.85;5.07;;;-0.20;99.90;;;;;;6242980;23;20012;-81
2022/11/19 04:12:46;;;;;;;8.07;4.43;;;-0.20;99.90;;;;;;6215035;23;20090;-81
2022/11/19 04:15:13;;;;;;;9.13;4.63;;;-0.20;99.90;;;;;;6242764;23;20020;-81
2022/11/19 04:17:39;;;;;;;9.10;4.68;;;-0.20;99.90;;;;;;6215929;23;20020;-81
2022/11/19 04:20:06;;;;;;;10.77;5.45;;;-0.20;99.90;;;;;;6214954;23;20130;-81
2022/11/19 04:22:32;;;;;;;10.88;4.53;;;-0.20;99.90;;;;;;6215239;23;20514;-81
2022/11/19 04:24:58;;;;;;;8.75;4.70;;;-0.20;99.90;;;;;;6213804;23;20020;-81
2022/11/19 04:27:23;;;;;;;10.18;5.20;;;0.30;99.90;;;;;;6243186;23;20023;-81
2022/11/19 04:29:49;;;;;;;10.88;5.60;;;-0.20;99.90;;;;;;6215726;23;20015;-81
2022/11/19 04:32:15;;;;;;;8.55;4.68;;;-0.30;99.90;;;;;;6214693;23;20437;-81
2022/11/19 04:34:40;;;;;;;9.95;4.85;;;0.00;99.90;;;;;;6242585;23;20012;-81
2022/11/19 04:37:06;;;;;;;9.35;4.72;;;-0.30;99.90;;;;;;6189906;23;20008;-81
2022/11/19 04:39:31;;;;;;;10.35;4.95;;;-0.30;99.90;;;;;;6214872;23;20367;-81
2022/11/19 04:41:57;;;;;;;8.65;4.60;;;-0.30;99.90;;;;;;6241665;23;20107;-81
2022/11/19 04:44:23;;;;;;;9.30;4.13;;;0.40;99.90;;;;;;6215572;23;20020;-81
2022/11/19 04:46:48;;;;;;;8.65;4.80;;;-0.30;99.90;;;;;;6242444;23;20016;-81
2022/11/19 04:49:14;;;;;;;9.48;5.00;;;-0.40;99.90;;;;;;6242026;23;20015;-80
2022/11/19 04:51:40;;;;;;;11.02;5.20;;;-0.40;99.90;;;;;;6242432;23;20016;-80
2022/11/19 04:54:07;;;;;;;9.50;5.07;;;-0.40;99.90;;;;;;6241189;23;20058;-80
2022/11/19 04:56:33;;;;;;;8.52;4.75;;;-0.40;99.90;;;;;;6241948;23;20362;-80
2022/11/19 04:58:59;;;;;;;10.10;5.15;;;-0.50;99.90;;;;;;6242471;23;20031;-80
2022/11/19 05:01:25;;;;;;;10.93;5.20;;;-0.40;99.90;;;;;;6242319;23;20379;-80
2022/11/19 05:03:50;;;;;;;10.25;5.05;;;-0.50;99.90;;;;;;6242871;23;20012;-80
2022/11/19 05:06:16;;;;;;;10.05;5.25;;;-0.50;99.90;;;;;;6214572;23;20087;-81
2022/11/19 05:08:42;;;;;;;8.95;5.47;;;-0.50;99.90;;;;;;6240301;23;20020;-80
2022/11/19 05:11:07;;;;;;;11.40;5.50;;;-0.50;99.90;;;;;;6241891;23;20425;-80
2022/11/19 05:13:33;;;;;;;11.05;5.35;;;-0.60;99.90;;;;;;6215355;23;20476;-79
2022/11/19 05:15:58;;;;;;;8.57;4.95;;;-0.60;99.90;;;;;;6214307;23;20020;-80
2022/11/19 05:18:24;;;;;;;9.90;5.03;;;-0.60;99.90;;;;;;6214933;23;20450;-80
2022/11/19 05:20:50;;;;;;;10.80;5.22;;;-0.60;99.90;;;;;;6215082;23;20432;-80
2022/11/19 05:23:15;;;;;;;9.30;5.10;;;-0.60;99.90;;;;;;6213346;23;20392;-80
2022/11/19 05:25:42;;;;;;;10.05;5.38;;;0.00;99.90;;;;;;6241200;23;20461;-80
2022/11/19 05:28:07;;;;;;;10.65;5.88;;;-0.60;99.90;;;;;;6241741;23;20016;-80
2022/11/19 05:30:33;;;;;;;12.07;5.65;;;-0.70;99.90;;;;;;6214766;23;20503;-80
2022/11/19 05:32:59;;;;;;;9.40;5.13;;;-0.70;99.90;;;;;;6214547;23;20035;-80
2022/11/19 05:35:24;;;;;;;12.27;5.72;;;-0.70;99.90;;;;;;6214302;23;20062;-80
2022/11/19 05:37:50;;;;;;;9.32;5.07;;;-0.70;99.90;;;;;;6240614;23;20078;-79
2022/11/19 05:40:17;;;;;;;12.07;5.93;;;-0.70;99.90;;;;;;6242629;23;20102;-80
2022/11/19 05:42:42;;;;;;;11.85;5.82;;;-0.70;99.90;;;;;;6189813;23;20027;-80
2022/11/19 05:45:09;;;;;;;9.20;5.13;;;-0.80;99.90;;;;;;6214771;23;20020;-80
2022/11/19 05:47:35;;;;;;;9.07;5.25;;;-0.70;99.90;;;;;;6214795;23;20038;-80
2022/11/19 05:50:02;;;;;;;12.25;6.40;;;-0.80;99.90;;;;;;6242048;23;20467;-80
2022/11/19 05:52:27;;;;;;;9.95;5.78;;;-0.80;99.90;;;;;;6240610;23;20433;-80
2022/11/19 05:54:53;;;;;;;11.80;5.57;;;-0.80;99.90;;;;;;6241827;23;20073;-80
2022/11/19 05:57:18;;;;;;;13.98;5.50;;;-0.80;99.90;;;;;;6214408;23;20020;-80
2022/11/19 05:59:44;;;;;;;9.65;5.60;;;-0.80;99.90;;;;;;6241280;23;20009;-80
2022/11/19 06:02:10;;;;;;;9.40;5.47;;;-0.80;99.90;;;;;;6214751;23;20016;-80
2022/11/19 06:04:36;;;;;;;14.13;6.20;;;-0.80;99.90;;;;;;6241365;23;20008;-80
2022/11/19 06:07:01;;;;;;;11.38;5.90;;;-0.80;99.90;;;;;;6213495;23;20019;-80
2022/11/19 06:09:27;;;;;;;10.65;5.82;;;-0.90;99.90;;;;;;6189229;23;20511;-80
2022/11/19 06:11:52;;;;;;;11.43;5.88;;;-0.90;99.90;;;;;;6214645;23;20020;-80
2022/11/19 06:14:23;;;;;;;10.25;5.78;;;-0.90;99.90;;;;;;6241179;23;20022;-80
2022/11/19 06:16:54;;;;;;;11.25;5.60;;;-0.90;99.90;;;;;;6215066;23;20020;-80
2022/11/19 06:19:20;;;;;;;9.52;5.03;;;-0.90;99.90;;;;;;6213877;23;20420;-80
2022/11/19 06:21:46;;;;;;;10.65;5.50;;;-0.90;99.90;;;;;;6240432;23;20437;-80
2022/11/19 06:24:13;;;;;;;9.35;5.50;;;-0.90;99.90;;;;;;6242143;23;20016;-79
2022/11/19 06:26:39;;;;;;;11.10;5.80;;;-0.90;99.90;;;;;;6188311;23;20016;-80
2022/11/19 06:29:05;;;;;;;10.82;5.65;;;-0.90;99.90;;;;;;6240674;23;20008;-80
2022/11/19 06:31:31;;;;;;;10.52;5.78;;;-0.90;99.90;;;;;;6188863;23;20020;-80
2022/11/19 06:33:57;;;;;;;10.40;6.18;;;-0.90;99.90;;;;;;6214836;23;20008;-80
2022/11/19 06:36:23;;;;;;;9.80;5.22;;;-0.90;99.90;;;;;;6239704;23;20074;-80
2022/11/19 06:38:48;;;;;;;11.35;5.88;;;-1.00;99.90;;;;;;6212859;23;20016;-80
2022/11/19 06:41:14;;;;;;;8.50;4.55;;;-1.00;99.90;;;;;;6214058;23;20016;-80
2022/11/19 06:43:40;;;;;;;12.40;6.18;;;-1.00;99.90;;;;;;6189196;23;20372;-79
2022/11/19 06:46:05;;;;;;;10.23;5.32;;;-1.00;99.90;;;;;;6214467;23;20087;-81
2022/11/19 06:48:31;;;;;;;9.77;5.30;;;-1.40;99.90;;;;;;6213694;23;20340;-80
2022/11/19 06:50:57;;;;;;;11.98;6.15;;;-1.00;99.90;;;;;;6239604;23;20012;-80
2022/11/19 06:53:22;;;;;;;10.00;5.35;;;-1.00;99.90;;;;;;6213315;23;20016;-80
2022/11/19 06:55:57;;;;;;;11.07;5.80;;;-1.00;99.90;;;;;;6240557;23;20036;-80
2022/11/19 06:58:23;;;;;;;10.95;5.60;;;-1.00;99.90;;;;;;6214332;23;20020;-80
2022/11/19 07:00:49;;;;;;;10.38;5.97;;;-1.10;99.90;;;;;;6188924;23;20073;-79
2022/11/19 07:03:15;;;;;;;11.27;6.00;;;-1.00;99.90;;;;;;6213622;23;20013;-80
2022/11/19 07:05:41;;;;;;;11.20;5.95;;;-1.10;99.90;;;;;;6240407;23;20069;-80
2022/11/19 07:08:06;;;;;;;10.88;5.93;;;-1.10;99.90;;;;;;6214072;23;20441;-80
2022/11/19 07:10:32;;;;;;;12.00;5.72;;;-1.10;99.90;;;;;;6187757;23;20076;-80
2022/11/19 07:12:58;;;;;;;12.93;6.63;;;-1.10;99.90;;;;;;6213609;23;20319;-79
2022/11/19 07:15:24;;;;;;;9.35;5.47;;;-1.00;99.90;;;;;;6213772;23;20337;-79
2022/11/19 07:17:50;;;;;;;12.13;5.72;;;-1.10;99.90;;;;;;6187626;23;20019;-80
2022/11/19 07:20:16;;;;;;;10.98;6.15;;;-1.10;99.90;;;;;;6239827;23;20016;-79
2022/11/19 07:22:42;;;;;;;13.23;5.97;;;-1.10;99.90;;;;;;6214478;23;20019;-80
2022/11/19 07:25:11;;;;;;;12.70;6.18;;;-1.10;99.90;;;;;;6241109;23;20127;-80
2022/11/19 07:27:37;;;;;;;11.88;6.10;;;-1.10;99.90;;;;;;6241184;23;20032;-80
2022/11/19 07:30:06;;;;;;;11.90;6.75;;;-1.10;99.90;;;;;;6214542;23;20007;-79
2022/11/19 07:32:32;;;;;;;9.88;6.47;;;-1.10;99.90;;;;;;6215917;23;20074;-79
2022/11/19 07:34:58;;;;;;;10.57;6.03;;;-1.10;99.90;;;;;;6215441;23;20011;-79
2022/11/19 07:37:24;;;;;;;12.05;6.68;;;-1.10;99.90;;;;;;6216085;23;20507;-80
2022/11/19 07:39:49;;;;;;;15.85;6.10;;;-1.10;99.90;;;;;;6214830;23;20497;-80
2022/11/19 07:44:59;;;;;;;10.77;6.30;;;-1.10;99.90;;;;;;6240647;23;20348;-80
2022/11/19 07:47:25;;;;;;;12.05;6.40;;;-1.10;99.90;;;;;;6214911;23;20047;-79
2022/11/19 07:49:50;;;;;;;13.07;6.47;;;-1.10;99.90;;;;;;6240009;23;20012;-78
2022/11/19 07:52:16;;;;;;;11.48;6.50;;;-1.10;99.90;;;;;;6214439;23;20384;-79
2022/11/19 07:54:42;;;;;;;12.10;6.60;;;-1.10;99.90;;;;;;6215131;23;20110;-80
2022/11/19 07:57:08;;;;;;;13.73;6.53;;;-1.10;99.90;;;;;;6243166;23;20052;-79
2022/11/19 07:59:34;;;;;;;12.07;7.28;;;-1.10;99.90;;;;;;6215487;23;20020;-80
2022/11/19 08:01:59;;;;;;;10.65;6.00;;;-1.10;99.90;;;;;;6243006;23;20008;-80
2022/11/19 08:04:27;;;;;;;11.90;6.85;;;-1.10;99.90;;;;;;6215461;23;20344;-80
2022/11/19 08:06:53;;;;;;;11.25;6.40;;;-1.10;99.90;;;;;;6215771;23;20020;-80
2022/11/19 08:09:19;;;;;;;12.50;6.93;;;-1.00;99.90;;;;;;6243180;23;20016;-80
2022/11/19 08:11:44;;;;;;;12.35;5.93;;;-1.00;99.90;;;;;;6215522;23;20012;-80
2022/11/19 08:14:13;;;;;;;12.02;6.38;;;-1.00;99.90;;;;;;6214978;23;20004;-79
2022/11/19 08:19:24;;;;;;;12.50;7.10;;;-0.90;99.90;;;;;;6215415;23;20464;-80
2022/11/19 08:21:49;;;;;;;13.77;7.13;;;-0.90;99.90;;;;;;6242629;23;20092;-80
2022/11/19 08:24:18;;;;;;;11.43;6.53;;;-0.90;99.90;;;;;;6242481;23;20008;-80
2022/11/19 08:26:44;;;;;;;13.32;7.03;;;-0.90;99.90;;;;;;6190502;23;20016;-80
2022/11/19 08:29:12;;;;;;;12.50;6.90;;;-0.90;99.90;;;;;;6214405;23;20016;-80
2022/11/19 08:31:39;;;;;;;13.75;7.20;;;-0.90;99.90;;;;;;6212462;23;20091;-80
2022/11/19 08:34:05;;;;;;;13.80;7.28;;;-0.90;99.90;;;;;;6213495;23;20020;-80
2022/11/19 08:36:30;;;;;;;17.60;7.65;;;-0.80;99.90;;;;;;6240254;23;20507;-80
2022/11/19 08:38:59;;;;;;;12.32;7.22;;;-0.80;99.90;;;;;;6239755;23;20015;-80
2022/11/19 08:44:11;;;;;;;15.27;7.93;;;-0.80;99.90;;;;;;6240479;23;20031;-80
2022/11/19 08:46:37;;;;;;;12.50;6.80;;;-0.70;99.90;;;;;;6213599;23;20471;-79
2022/11/19 08:49:03;;;;;;;12.95;7.45;;;-0.70;99.90;;;;;;6213759;23;20039;-78
2022/11/19 08:51:29;;;;;;;16.20;7.85;;;-0.70;99.90;;;;;;6241154;23;20012;-80
2022/11/19 08:53:55;;;;;;;12.90;7.55;;;-0.70;99.90;;;;;;6214729;23;20018;-81
2022/11/19 08:56:21;;;;;;;12.35;7.50;;;-0.50;99.90;;;;;;6215132;23;20322;-82
2022/11/19 08:58:47;;;;;;;15.10;9.27;;;-0.60;99.90;;;;;;6215599;23;20019;-82
2022/11/19 09:01:15;;;;;;;12.50;8.00;;;-0.60;99.90;;;;;;6215481;23;20012;-83
2022/11/19 09:03:41;;;;;;;12.68;7.43;;;-0.50;99.90;;;;;;6241805;23;20008;-81
2022/11/19 09:06:08;;;;;;;12.95;6.90;;;-0.50;99.90;;;;;;6241907;23;20054;-84
2022/11/19 09:08:34;;;;;;;14.23;7.60;;;-0.50;99.90;;;;;;6215159;23;20447;-84
2022/11/19 09:11:06;;;;;;;13.38;8.10;;;-0.40;99.90;;;;;;6219777;23;20016;-84
2022/11/19 09:13:32;;;;;;;12.55;7.00;;;-0.40;99.90;;;;;;6194963;23;20023;-84
2022/11/19 09:15:58;;;;;;;12.50;6.78;;;-0.40;99.90;;;;;;6244795;23;20044;-84
2022/11/19 09:18:24;;;;;;;13.40;7.30;;;-0.40;99.90;;;;;;6217915;23;20047;-84
2022/11/19 09:20:56;;;;;;;15.60;8.38;;;-0.30;99.90;;;;;;6193136;23;20106;-83
2022/11/19 09:23:22;;;;;;;14.15;7.93;;;-0.30;99.90;;;;;;6218105;23;20052;-84
2022/11/19 09:26:03;;;;;;;14.10;7.78;;;-0.30;99.90;;;;;;6193409;23;20008;-84
2022/11/19 09:28:30;;;;;;;13.15;7.25;;;-0.20;99.90;;;;;;6218366;23;20016;-84
2022/11/19 09:30:57;;;;;;;13.63;7.72;;;-0.20;99.90;;;;;;6217617;23;20035;-85
2022/11/19 09:33:23;;;;;;;13.63;7.13;;;-0.20;99.90;;;;;;6244992;23;20016;-84
2022/11/19 09:35:49;;;;;;;11.75;6.90;;;-0.20;99.90;;;;;;6244885;23;20016;-84
2022/11/19 09:38:15;;;;;;;12.90;7.65;;;-0.10;99.90;;;;;;6218500;23;20113;-84
2022/11/19 09:40:50;;;;;;;11.98;6.85;;;-0.10;99.90;;;;;;6192898;23;20432;-84
2022/11/19 09:43:24;;;;;;;12.50;8.00;;;0.00;99.90;;;;;;6192636;23;20023;-84
2022/11/19 09:46:27;;;;;;;13.25;7.18;;;0.00;99.90;;;;;;6244587;23;20056;-84
2022/11/19 09:48:58;;;;;;;14.52;6.93;;;0.10;99.90;;;;;;6192166;23;20478;-84
2022/11/19 09:51:29;;;;;;;13.18;7.72;;;0.10;99.90;;;;;;6244717;23;20024;-84
2022/11/19 09:54:02;;;;;;;14.60;7.28;;;0.20;99.90;;;;;;6244458;23;20091;-85
2022/11/19 09:56:37;;;;;;;15.48;7.90;;;0.30;99.90;;;;;;6245704;23;20019;-84
2022/11/19 09:59:15;;;;;;;11.13;7.00;;;0.70;99.90;;;;;;6244944;23;20463;-84
2022/11/19 10:01:40;;;;;;;14.63;7.88;;;0.50;99.90;;;;;;6218193;23;20126;-84
2022/11/19 10:04:09;;;;;;;12.65;7.28;;;0.60;99.90;;;;;;6218454;23;20067;-85
2022/11/19 10:06:44;;;;;;;14.30;8.02;;;0.60;99.90;;;;;;6217507;23;20436;-84
2022/11/19 10:09:13;;;;;;;13.65;6.90;;;0.70;99.90;;;;;;6244587;23;20019;-85
2022/11/19 10:12:00;;;;;;;12.10;6.80;;;0.80;99.90;;;;;;6192269;23;20020;-85
2022/11/19 10:14:48;;;;;;;11.10;6.82;;;0.90;99.90;;;;;;6243895;23;20011;-85
2022/11/19 10:17:38;;;;;;;11.68;6.70;;;1.00;99.90;;;;;;6217591;23;20491;-84
2022/11/19 10:20:30;;;;;;;11.07;6.82;;;1.10;99.90;;;;;;6217839;23;20448;-84
2022/11/19 10:23:04;;;;;;;12.43;7.25;;;1.30;99.90;;;;;;6217941;23;20023;-83
2022/11/19 10:25:43;;;;;;;13.43;6.95;;;1.20;99.90;;;;;;6218390;23;20012;-85
2022/11/19 10:28:17;;;;;;;15.32;7.50;;;1.30;99.90;;;;;;6244565;23;20012;-84
2022/11/19 10:30:48;;;;;;;12.65;6.30;;;1.40;99.90;;;;;;6218458;23;20055;-85
2022/11/19 10:33:36;;;;;;;11.27;7.03;;;1.50;99.90;;;;;;6193275;23;20023;-85
2022/11/19 10:36:20;;;;;;;11.63;6.45;;;1.60;99.90;;;;;;6218057;23;20453;-84
2022/11/19 10:39:01;;;;;;;11.02;6.35;;;1.70;99.90;;;;;;6218302;23;20016;-85
2022/11/19 10:41:57;;;;;;;10.30;6.90;;;1.70;99.90;;;;;;6191786;23;20066;-84
2022/11/19 10:44:39;;;;;;;10.63;7.05;;;1.80;99.90;;;;;;6200557;23;20047;-85
2022/11/19 10:47:16;;;;;;;11.05;6.00;;;2.00;99.90;;;;;;6244787;23;20008;-85
2022/11/19 10:49:43;;;;;;;9.88;5.68;;;2.00;99.90;;;;;;6244603;23;20031;-85
2022/11/19 10:52:23;;;;;;;12.48;6.25;;;2.10;99.90;;;;;;6191337;23;20011;-85
2022/11/19 10:54:54;;;;;;;10.25;6.20;;;2.20;99.90;;;;;;6245261;23;20078;-83
2022/11/19 10:57:20;;;;;;;11.45;6.53;;;2.30;99.90;;;;;;6244601;23;20063;-83
2022/11/19 10:59:48;;;;;;;10.32;5.35;;;2.40;99.90;;;;;;6245289;23;20012;-83
2022/11/19 11:02:23;;;;;;;10.32;6.35;;;2.50;99.90;;;;;;6218002;23;20655;-83
2022/11/19 11:05:01;;;;;;;10.30;5.40;;;2.50;99.90;;;;;;6218206;23;20326;-84
2022/11/19 11:07:48;;;;;;;8.05;5.32;;;2.70;99.90;;;;;;6245127;23;20031;-84
2022/11/19 11:10:46;;;;;;;9.75;5.72;;;2.70;99.90;;;;;;6193469;23;20016;-83
2022/11/19 11:16:39;;;;;;;9.55;5.70;;;2.90;99.90;;;;;;6244756;23;20036;-84
2022/11/19 11:19:18;;;;;;;12.93;6.35;;;3.00;99.90;;;;;;6244326;23;20012;-83
2022/11/19 11:21:44;;;;;;;10.32;5.35;;;3.10;99.90;;;;;;6217667;23;20016;-84
2022/11/19 11:24:12;;;;;;;9.73;5.55;;;3.20;99.90;;;;;;6242121;23;20115;-83
2022/11/19 11:26:39;;;;;;;10.68;5.53;;;3.30;99.90;;;;;;6242301;23;20015;-83
2022/11/19 11:29:11;;;;;;;11.30;6.10;;;4.00;99.90;;;;;;6188814;23;20024;-82
2022/11/19 11:31:41;;;;;;;12.50;6.03;;;3.50;99.90;;;;;;6189031;23;20013;-83
2022/11/19 11:34:19;;;;;;;10.40;5.55;;;3.60;99.90;;;;;;6240679;23;20016;-83
2022/11/19 11:36:45;;;;;;;10.25;5.78;;;3.80;99.90;;;;;;6189760;23;20024;-81
2022/11/19 11:39:39;;;;;;;10.35;5.85;;;3.80;99.90;;;;;;6241217;23;20012;-80
2022/11/19 11:42:10;;;;;;;9.93;5.00;;;4.00;99.90;;;;;;6238906;23;20444;-81
2022/11/19 11:44:46;;;;;;;9.05;4.70;;;4.00;99.90;;;;;;6239493;23;20019;-81
2022/11/19 11:47:19;;;;;;;9.52;5.40;;;4.10;99.90;;;;;;6212141;23;20347;-79
2022/11/19 11:49:54;;;;;;;9.45;5.53;;;4.10;99.90;;;;;;6238408;23;20016;-79
2022/11/19 11:52:31;;;;;;;9.18;5.20;;;4.20;99.90;;;;;;6211620;23;20016;-80
2022/11/19 11:55:06;;;;;;;8.98;5.15;;;4.30;99.90;;;;;;6206217;23;20017;-79
2022/11/19 11:57:48;;;;;;;9.13;5.25;;;4.30;99.90;;;;;;6207571;23;20012;-79
2022/11/19 12:00:32;;;;;;;9.02;4.82;;;4.40;99.90;;;;;;6208826;23;20016;-80
2022/11/19 12:03:00;;;;;;;8.73;5.07;;;4.40;99.90;;;;;;6206922;23;20016;-79
2022/11/19 12:05:32;;;;;;;8.77;4.95;;;4.50;99.90;;;;;;6207551;23;20012;-80
2022/11/19 12:08:05;;;;;;;7.88;4.60;;;4.50;99.90;;;;;;6206104;23;20314;-80
2022/11/19 12:11:13;;;;;;;9.23;5.32;;;4.60;99.90;;;;;;6208724;23;20012;-80
2022/11/19 12:13:54;;;;;;;9.55;4.75;;;4.60;99.90;;;;;;6086931;23;20361;-80
2022/11/19 12:16:44;;;;;;;9.18;4.38;;;4.60;99.90;;;;;;6040188;23;20026;-81
2022/11/19 12:19:36;;;;;;;8.98;5.07;;;4.60;99.90;;;;;;6065164;23;20018;-82
2022/11/19 12:22:36;;;;;;;8.15;4.45;;;4.60;99.90;;;;;;6087989;23;20023;-81
2022/11/19 12:25:10;;;;;;;8.43;4.38;;;4.60;99.90;;;;;;6088951;23;20010;-81
2022/11/19 12:27:45;;;;;;;;;;;4.60;99.90;;;;;;6089939;23;20483;-81
2022/11/19 12:30:19;;;;;;;;;;;4.60;99.90;;;;;;6089850;23;19976;-81
2022/11/19 12:33:11;;;;;;;8.20;4.50;;;4.60;99.90;;;;;;6089554;23;19926;-81
2022/11/19 12:35:51;;;;;;;9.15;3.90;;;4.50;99.90;;;;;;6090157;23;20018;-82
2022/11/19 12:38:48;;;;;;;7.82;4.72;;;4.50;99.90;;;;;;6063770;23;20054;-82
2022/11/19 12:41:54;;;;;;;8.95;4.82;;;4.50;99.90;;;;;;6089011;23;20026;-80
2022/11/19 12:44:31;;;;;;;7.22;4.35;;;4.40;99.90;;;;;;6041933;23;20018;-81
2022/11/19 12:47:14;;;;;;;9.30;4.10;;;4.40;99.90;;;;;;6089752;23;20011;-81
2022/11/19 12:50:17;;;;;;;9.63;4.78;;;4.30;99.90;;;;;;6073564;23;20010;-81
2022/11/19 12:52:52;;;;;;;9.00;4.72;;;4.20;99.90;;;;;;6208426;23;20025;-80
2022/11/19 12:55:17;;;;;;;10.40;4.50;;;4.20;99.90;;;;;;6183924;23;20017;-81
2022/11/19 12:58:15;;;;;;;7.00;3.83;;;4.10;99.90;;;;;;6210428;23;20091;-81
2022/11/19 13:00:58;;;;;;;7.30;4.03;;;4.10;99.90;;;;;;6209250;23;20013;-81
2022/11/19 13:03:44;;;;;;;9.18;4.00;;;4.00;99.90;;;;;;6209006;23;20020;-81
2022/11/19 13:06:18;;;;;;;9.57;4.05;;;3.90;99.90;;;;;;6184862;23;20008;-82
2022/11/19 13:08:54;;;;;;;8.38;4.20;;;3.80;99.90;;;;;;6208524;23;20020;-82
2022/11/19 13:11:27;;;;;;;12.02;4.38;;;3.80;99.90;;;;;;6211562;23;20009;-82
2022/11/19 13:14:10;;;;;;;9.07;4.32;;;3.70;99.90;;;;;;6209370;23;20035;-82
2022/11/19 13:16:36;;;;;;;7.82;3.90;;;3.70;99.90;;;;;;6184831;23;20084;-82
2022/11/19 13:19:25;;;;;;;8.20;4.05;;;3.70;99.90;;;;;;6209121;23;20051;-82
2022/11/19 13:22:22;;;;;;;8.63;4.03;;;3.60;99.90;;;;;;6208903;23;20012;-82
2022/11/19 13:24:54;;;;;;;9.90;4.05;;;3.60;99.90;;;;;;6209646;23;20111;-82
2022/11/19 13:27:24;;;;;;;8.32;4.00;;;3.60;99.90;;;;;;6209551;23;20078;-81
2022/11/19 13:30:01;;;;;;;9.15;4.32;;;3.50;99.90;;;;;;6209462;23;20013;-82
2022/11/19 13:32:39;;;;;;;7.82;4.32;;;3.50;99.90;;;;;;6211091;23;20017;-82
2022/11/19 13:35:31;;;;;;;7.18;4.35;;;3.50;99.90;;;;;;6209706;23;20021;-82
2022/11/19 13:38:03;;;;;;;7.03;4.22;;;3.40;99.90;;;;;;6189562;23;20017;-82